Terminal Aerodrome Forecast
Issued by NWS

Home | Current Version | Previous Version | Text Only | Print | Product List | Glossary On
Versions: 1 2 3 4 5 6 7 8 9 10 11 12 13 14 15
000
FTUS46 KMTR 270500
TAFOAK
TAF
KOAK 270525Z 2706/2812 28016KT P6SM OVC015
     FM272100 29017KT P6SM FEW010 SCT015
     FM280300 29009KT P6SM FEW010 SCT015=

USA.gov is the U.S. government's official web portal to all federal, state and local government web resources and services.